sensor_id;sensor_type;location;lat;lon;timestamp;temperature;humidity
56753;DHT22;42627;42.646;23.642;2022-10-16T00:00:15;9.40;91.60
56753;DHT22;42627;42.646;23.642;2022-10-16T00:02:16;9.30;91.40
56753;DHT22;42627;42.646;23.642;2022-10-16T00:04:16;9.30;91.30
56753;DHT22;42627;42.646;23.642;2022-10-16T00:06:19;9.30;91.20
56753;DHT22;42627;42.646;23.642;2022-10-16T00:08:37;9.40;91.20
56753;DHT22;42627;42.646;23.642;2022-10-16T00:10:37;9.40;91.10
56753;DHT22;42627;42.646;23.642;2022-10-16T00:12:38;9.40;90.90
56753;DHT22;42627;42.646;23.642;2022-10-16T00:14:39;9.30;91.00
56753;DHT22;42627;42.646;23.642;2022-10-16T00:16:42;9.30;91.20
56753;DHT22;42627;42.646;23.642;2022-10-16T00:19:19;9.30;91.30
56753;DHT22;42627;42.646;23.642;2022-10-16T00:21:38;9.20;91.70
56753;DHT22;42627;42.646;23.642;2022-10-16T00:24:02;9.10;91.70
56753;DHT22;42627;42.646;23.642;2022-10-16T00:26:07;9.00;92.00
56753;DHT22;42627;42.646;23.642;2022-10-16T00:28:08;9.00;92.00
56753;DHT22;42627;42.646;23.642;2022-10-16T00:30:09;9.10;91.90
56753;DHT22;42627;42.646;23.642;2022-10-16T00:32:09;9.10;91.80
56753;DHT22;42627;42.646;23.642;2022-10-16T00:34:10;9.10;91.70
56753;DHT22;42627;42.646;23.642;2022-10-16T00:36:13;9.00;91.60
56753;DHT22;42627;42.646;23.642;2022-10-16T00:38:29;9.00;91.90
56753;DHT22;42627;42.646;23.642;2022-10-16T00:40:30;9.00;92.30
56753;DHT22;42627;42.646;23.642;2022-10-16T00:42:32;9.00;92.40
56753;DHT22;42627;42.646;23.642;2022-10-16T00:47:48;8.80;93.10
56753;DHT22;42627;42.646;23.642;2022-10-16T00:53:01;8.50;94.00
56753;DHT22;42627;42.646;23.642;2022-10-16T00:55:03;8.30;94.40
56753;DHT22;42627;42.646;23.642;2022-10-16T00:57:05;8.20;94.90
56753;DHT22;42627;42.646;23.642;2022-10-16T00:59:13;8.00;95.80
56753;DHT22;42627;42.646;23.642;2022-10-16T01:01:14;7.90;95.90
56753;DHT22;42627;42.646;23.642;2022-10-16T01:03:28;7.80;96.30
56753;DHT22;42627;42.646;23.642;2022-10-16T01:05:42;7.80;96.80
56753;DHT22;42627;42.646;23.642;2022-10-16T01:10:27;7.90;97.10
56753;DHT22;42627;42.646;23.642;2022-10-16T01:12:34;7.90;96.80
56753;DHT22;42627;42.646;23.642;2022-10-16T01:15:14;7.90;96.30
56753;DHT22;42627;42.646;23.642;2022-10-16T01:20:44;7.60;96.90
56753;DHT22;42627;42.646;23.642;2022-10-16T01:25:34;7.70;96.40
56753;DHT22;42627;42.646;23.642;2022-10-16T01:27:39;7.60;96.20
56753;DHT22;42627;42.646;23.642;2022-10-16T01:31:46;7.40;96.90
56753;DHT22;42627;42.646;23.642;2022-10-16T01:33:53;7.30;97.40
56753;DHT22;42627;42.646;23.642;2022-10-16T01:40:31;7.30;98.00
56753;DHT22;42627;42.646;23.642;2022-10-16T01:42:42;7.20;98.00
56753;DHT22;42627;42.646;23.642;2022-10-16T01:44:43;7.30;97.80
56753;DHT22;42627;42.646;23.642;2022-10-16T01:47:01;7.40;97.20
56753;DHT22;42627;42.646;23.642;2022-10-16T01:52:20;7.30;97.40
56753;DHT22;42627;42.646;23.642;2022-10-16T01:54:23;7.30;98.00
56753;DHT22;42627;42.646;23.642;2022-10-16T01:56:26;7.30;97.90
56753;DHT22;42627;42.646;23.642;2022-10-16T01:58:29;7.30;97.30
56753;DHT22;42627;42.646;23.642;2022-10-16T02:00:37;7.40;97.30
56753;DHT22;42627;42.646;23.642;2022-10-16T02:02:41;7.40;97.50
56753;DHT22;42627;42.646;23.642;2022-10-16T02:04:51;7.50;97.30
56753;DHT22;42627;42.646;23.642;2022-10-16T02:07:12;7.50;97.00
56753;DHT22;42627;42.646;23.642;2022-10-16T02:09:13;7.40;96.30
56753;DHT22;42627;42.646;23.642;2022-10-16T02:11:17;7.50;96.00
56753;DHT22;42627;42.646;23.642;2022-10-16T02:13:47;7.40;95.90
56753;DHT22;42627;42.646;23.642;2022-10-16T02:16:05;7.40;95.70
56753;DHT22;42627;42.646;23.642;2022-10-16T02:23:01;7.30;97.30
56753;DHT22;42627;42.646;23.642;2022-10-16T02:25:26;7.30;97.60
56753;DHT22;42627;42.646;23.642;2022-10-16T02:29:55;7.40;97.60
56753;DHT22;42627;42.646;23.642;2022-10-16T02:32:02;7.40;96.90
56753;DHT22;42627;42.646;23.642;2022-10-16T02:34:04;7.40;96.50
56753;DHT22;42627;42.646;23.642;2022-10-16T02:38:17;7.40;96.40
56753;DHT22;42627;42.646;23.642;2022-10-16T02:40:19;7.40;96.30
56753;DHT22;42627;42.646;23.642;2022-10-16T02:42:20;7.30;96.80
56753;DHT22;42627;42.646;23.642;2022-10-16T02:44:20;7.40;97.20
56753;DHT22;42627;42.646;23.642;2022-10-16T02:46:52;7.30;97.50
56753;DHT22;42627;42.646;23.642;2022-10-16T02:52:14;7.30;97.70
56753;DHT22;42627;42.646;23.642;2022-10-16T02:54:15;7.30;97.70
56753;DHT22;42627;42.646;23.642;2022-10-16T02:56:15;7.30;97.60
56753;DHT22;42627;42.646;23.642;2022-10-16T02:58:16;7.40;97.70
56753;DHT22;42627;42.646;23.642;2022-10-16T03:00:17;7.40;97.70
56753;DHT22;42627;42.646;23.642;2022-10-16T03:02:18;7.40;97.90
56753;DHT22;42627;42.646;23.642;2022-10-16T03:04:19;7.40;98.30
56753;DHT22;42627;42.646;23.642;2022-10-16T03:08:30;7.20;99.00
56753;DHT22;42627;42.646;23.642;2022-10-16T03:10:31;7.10;99.90
56753;DHT22;42627;42.646;23.642;2022-10-16T03:12:32;7.00;99.90
56753;DHT22;42627;42.646;23.642;2022-10-16T03:14:33;6.90;99.90
56753;DHT22;42627;42.646;23.642;2022-10-16T03:17:08;6.80;99.90
56753;DHT22;42627;42.646;23.642;2022-10-16T03:19:37;6.70;99.90
56753;DHT22;42627;42.646;23.642;2022-10-16T03:21:37;6.60;99.90
56753;DHT22;42627;42.646;23.642;2022-10-16T03:23:38;6.70;99.90
56753;DHT22;42627;42.646;23.642;2022-10-16T03:25:39;6.70;99.90
56753;DHT22;42627;42.646;23.642;2022-10-16T03:27:40;6.70;99.90
56753;DHT22;42627;42.646;23.642;2022-10-16T03:29:41;6.80;99.90
56753;DHT22;42627;42.646;23.642;2022-10-16T03:31:41;6.90;99.90
56753;DHT22;42627;42.646;23.642;2022-10-16T03:33:42;6.90;99.90
56753;DHT22;42627;42.646;23.642;2022-10-16T03:35:58;6.90;99.90
56753;DHT22;42627;42.646;23.642;2022-10-16T03:37:59;7.00;99.90
56753;DHT22;42627;42.646;23.642;2022-10-16T03:39:59;6.90;99.90
56753;DHT22;42627;42.646;23.642;2022-10-16T03:42:00;6.90;99.90
56753;DHT22;42627;42.646;23.642;2022-10-16T03:44:01;7.00;99.90
56753;DHT22;42627;42.646;23.642;2022-10-16T03:46:23;7.00;99.90
56753;DHT22;42627;42.646;23.642;2022-10-16T03:48:51;7.10;99.90
56753;DHT22;42627;42.646;23.642;2022-10-16T03:51:10;7.10;99.90
56753;DHT22;42627;42.646;23.642;2022-10-16T03:53:11;7.10;99.90
56753;DHT22;42627;42.646;23.642;2022-10-16T03:55:12;7.10;98.80
56753;DHT22;42627;42.646;23.642;2022-10-16T03:57:12;7.00;98.20
56753;DHT22;42627;42.646;23.642;2022-10-16T03:59:13;7.00;97.90
56753;DHT22;42627;42.646;23.642;2022-10-16T04:01:14;7.10;97.40
56753;DHT22;42627;42.646;23.642;2022-10-16T04:03:15;7.00;97.00
56753;DHT22;42627;42.646;23.642;2022-10-16T04:05:37;7.00;96.90
56753;DHT22;42627;42.646;23.642;2022-10-16T04:07:38;6.90;96.40
56753;DHT22;42627;42.646;23.642;2022-10-16T04:09:39;6.80;96.50
56753;DHT22;42627;42.646;23.642;2022-10-16T04:11:39;6.70;96.70
56753;DHT22;42627;42.646;23.642;2022-10-16T04:13:40;6.60;97.70
56753;DHT22;42627;42.646;23.642;2022-10-16T04:16:19;6.70;98.20
56753;DHT22;42627;42.646;23.642;2022-10-16T04:18:53;6.70;97.90
56753;DHT22;42627;42.646;23.642;2022-10-16T04:21:12;6.70;97.20
56753;DHT22;42627;42.646;23.642;2022-10-16T04:23:14;6.60;97.30
56753;DHT22;42627;42.646;23.642;2022-10-16T04:25:30;6.50;98.20
56753;DHT22;42627;42.646;23.642;2022-10-16T04:27:32;6.40;99.10
56753;DHT22;42627;42.646;23.642;2022-10-16T04:29:32;6.30;99.80
56753;DHT22;42627;42.646;23.642;2022-10-16T04:31:33;6.20;99.90
56753;DHT22;42627;42.646;23.642;2022-10-16T04:33:34;6.10;99.90
56753;DHT22;42627;42.646;23.642;2022-10-16T04:37:45;5.90;99.90
56753;DHT22;42627;42.646;23.642;2022-10-16T04:39:46;5.90;99.90
56753;DHT22;42627;42.646;23.642;2022-10-16T04:41:47;5.80;99.90
56753;DHT22;42627;42.646;23.642;2022-10-16T04:43:47;5.70;99.90
56753;DHT22;42627;42.646;23.642;2022-10-16T04:49:09;5.90;99.90
56753;DHT22;42627;42.646;23.642;2022-10-16T04:51:25;6.00;99.90
56753;DHT22;42627;42.646;23.642;2022-10-16T04:53:26;6.10;99.90
56753;DHT22;42627;42.646;23.642;2022-10-16T04:55:27;6.10;99.90
56753;DHT22;42627;42.646;23.642;2022-10-16T04:57:29;6.10;99.90
56753;DHT22;42627;42.646;23.642;2022-10-16T04:59:30;6.10;99.90
56753;DHT22;42627;42.646;23.642;2022-10-16T05:01:31;6.20;99.90
56753;DHT22;42627;42.646;23.642;2022-10-16T05:03:31;6.30;99.90
56753;DHT22;42627;42.646;23.642;2022-10-16T05:07:42;6.40;99.70
56753;DHT22;42627;42.646;23.642;2022-10-16T05:09:43;6.30;99.60
56753;DHT22;42627;42.646;23.642;2022-10-16T05:11:44;6.30;99.60
56753;DHT22;42627;42.646;23.642;2022-10-16T05:13:44;6.30;99.80
56753;DHT22;42627;42.646;23.642;2022-10-16T05:16:16;6.30;99.90
56753;DHT22;42627;42.646;23.642;2022-10-16T05:18:48;6.20;99.90
56753;DHT22;42627;42.646;23.642;2022-10-16T05:20:58;6.30;99.90
56753;DHT22;42627;42.646;23.642;2022-10-16T05:22:59;6.40;99.90
56753;DHT22;42627;42.646;23.642;2022-10-16T05:25:00;6.50;99.90
56753;DHT22;42627;42.646;23.642;2022-10-16T05:27:01;6.50;99.90
56753;DHT22;42627;42.646;23.642;2022-10-16T05:29:01;6.50;99.90
56753;DHT22;42627;42.646;23.642;2022-10-16T05:31:09;6.60;99.90
56753;DHT22;42627;42.646;23.642;2022-10-16T05:33:10;6.70;99.90
56753;DHT22;42627;42.646;23.642;2022-10-16T05:37:21;6.70;99.90
56753;DHT22;42627;42.646;23.642;2022-10-16T05:39:23;6.80;99.90
56753;DHT22;42627;42.646;23.642;2022-10-16T05:41:23;6.90;99.90
56753;DHT22;42627;42.646;23.642;2022-10-16T05:43:30;7.00;99.90
56753;DHT22;42627;42.646;23.642;2022-10-16T05:46:09;7.00;99.90
56753;DHT22;42627;42.646;23.642;2022-10-16T05:48:40;7.10;99.90
56753;DHT22;42627;42.646;23.642;2022-10-16T05:50:42;7.10;99.90
56753;DHT22;42627;42.646;23.642;2022-10-16T05:52:43;7.20;99.90
56753;DHT22;42627;42.646;23.642;2022-10-16T05:54:44;7.20;99.90
56753;DHT22;42627;42.646;23.642;2022-10-16T05:56:45;7.30;99.90
56753;DHT22;42627;42.646;23.642;2022-10-16T05:58:48;7.30;99.90
56753;DHT22;42627;42.646;23.642;2022-10-16T06:01:05;7.40;99.90
56753;DHT22;42627;42.646;23.642;2022-10-16T06:03:08;7.50;99.90
56753;DHT22;42627;42.646;23.642;2022-10-16T06:05:21;7.70;99.90
56753;DHT22;42627;42.646;23.642;2022-10-16T06:07:22;7.80;99.90
56753;DHT22;42627;42.646;23.642;2022-10-16T06:09:24;7.90;99.90
56753;DHT22;42627;42.646;23.642;2022-10-16T06:11:27;8.00;99.90
56753;DHT22;42627;42.646;23.642;2022-10-16T06:13:29;8.10;99.90
56753;DHT22;42627;42.646;23.642;2022-10-16T06:15:42;8.20;99.90
56753;DHT22;42627;42.646;23.642;2022-10-16T06:17:59;8.30;99.90
56753;DHT22;42627;42.646;23.642;2022-10-16T06:20:06;8.40;99.90
56753;DHT22;42627;42.646;23.642;2022-10-16T06:22:06;8.40;99.90
56753;DHT22;42627;42.646;23.642;2022-10-16T06:24:08;8.60;99.90
56753;DHT22;42627;42.646;23.642;2022-10-16T06:26:10;8.70;99.90
56753;DHT22;42627;42.646;23.642;2022-10-16T06:28:13;8.80;99.90
56753;DHT22;42627;42.646;23.642;2022-10-16T06:30:14;9.00;99.90
56753;DHT22;42627;42.646;23.642;2022-10-16T06:32:15;9.20;99.90
56753;DHT22;42627;42.646;23.642;2022-10-16T06:34:38;9.30;99.90
56753;DHT22;42627;42.646;23.642;2022-10-16T06:36:41;9.50;99.90
56753;DHT22;42627;42.646;23.642;2022-10-16T06:38:44;9.70;99.20
56753;DHT22;42627;42.646;23.642;2022-10-16T06:40:48;9.80;99.30
56753;DHT22;42627;42.646;23.642;2022-10-16T06:42:51;9.90;99.20
56753;DHT22;42627;42.646;23.642;2022-10-16T06:45:18;10.10;98.20
56753;DHT22;42627;42.646;23.642;2022-10-16T06:47:37;10.20;97.30
56753;DHT22;42627;42.646;23.642;2022-10-16T06:49:47;10.30;96.40
56753;DHT22;42627;42.646;23.642;2022-10-16T06:51:47;10.40;95.80
56753;DHT22;42627;42.646;23.642;2022-10-16T06:53:50;10.40;94.60
56753;DHT22;42627;42.646;23.642;2022-10-16T06:55:52;10.50;95.50
56753;DHT22;42627;42.646;23.642;2022-10-16T06:57:52;10.60;95.20
56753;DHT22;42627;42.646;23.642;2022-10-16T06:59:53;10.70;95.10
56753;DHT22;42627;42.646;23.642;2022-10-16T07:01:54;10.80;94.70
56753;DHT22;42627;42.646;23.642;2022-10-16T07:04:10;10.90;94.20
56753;DHT22;42627;42.646;23.642;2022-10-16T07:06:14;11.10;94.70
56753;DHT22;42627;42.646;23.642;2022-10-16T07:08:15;11.30;94.60
56753;DHT22;42627;42.646;23.642;2022-10-16T07:10:15;11.40;93.80
56753;DHT22;42627;42.646;23.642;2022-10-16T07:12:16;11.60;93.50
56753;DHT22;42627;42.646;23.642;2022-10-16T07:17:10;11.90;92.60
56753;DHT22;42627;42.646;23.642;2022-10-16T07:19:15;12.00;91.10
56753;DHT22;42627;42.646;23.642;2022-10-16T07:21:21;12.00;90.70
56753;DHT22;42627;42.646;23.642;2022-10-16T07:23:22;12.00;90.80
56753;DHT22;42627;42.646;23.642;2022-10-16T07:25:23;12.10;91.30
56753;DHT22;42627;42.646;23.642;2022-10-16T07:27:24;12.20;90.40
56753;DHT22;42627;42.646;23.642;2022-10-16T07:29:25;12.40;89.60
56753;DHT22;42627;42.646;23.642;2022-10-16T07:31:26;12.40;88.90
56753;DHT22;42627;42.646;23.642;2022-10-16T07:35:37;12.70;89.30
56753;DHT22;42627;42.646;23.642;2022-10-16T07:37:37;12.80;88.50
56753;DHT22;42627;42.646;23.642;2022-10-16T07:39:38;13.00;86.90
56753;DHT22;42627;42.646;23.642;2022-10-16T07:41:39;13.20;86.10
56753;DHT22;42627;42.646;23.642;2022-10-16T07:44:10;13.40;86.40
56753;DHT22;42627;42.646;23.642;2022-10-16T07:46:35;13.60;84.70
56753;DHT22;42627;42.646;23.642;2022-10-16T07:48:55;13.80;82.60
56753;DHT22;42627;42.646;23.642;2022-10-16T07:51:03;14.00;81.50
56753;DHT22;42627;42.646;23.642;2022-10-16T07:53:04;14.10;80.30
56753;DHT22;42627;42.646;23.642;2022-10-16T07:55:05;14.30;79.20
56753;DHT22;42627;42.646;23.642;2022-10-16T07:57:06;14.40;77.00
56753;DHT22;42627;42.646;23.642;2022-10-16T07:59:07;14.50;75.20
56753;DHT22;42627;42.646;23.642;2022-10-16T08:01:09;14.60;75.60
56753;DHT22;42627;42.646;23.642;2022-10-16T08:03:10;14.70;75.50
56753;DHT22;42627;42.646;23.642;2022-10-16T08:05:11;14.90;71.70
56753;DHT22;42627;42.646;23.642;2022-10-16T08:07:12;14.80;72.00
56753;DHT22;42627;42.646;23.642;2022-10-16T08:09:15;14.80;73.20
56753;DHT22;42627;42.646;23.642;2022-10-16T08:11:15;15.00;73.50
56753;DHT22;42627;42.646;23.642;2022-10-16T08:13:16;15.10;70.70
56753;DHT22;42627;42.646;23.642;2022-10-16T08:15:17;15.20;70.20
56753;DHT22;42627;42.646;23.642;2022-10-16T08:17:24;15.30;70.00
56753;DHT22;42627;42.646;23.642;2022-10-16T08:21:26;15.40;70.00
56753;DHT22;42627;42.646;23.642;2022-10-16T08:23:28;15.60;67.90
56753;DHT22;42627;42.646;23.642;2022-10-16T08:25:29;15.80;67.10
56753;DHT22;42627;42.646;23.642;2022-10-16T08:33:23;15.80;65.60
56753;DHT22;42627;42.646;23.642;2022-10-16T08:35:24;15.60;64.40
56753;DHT22;42627;42.646;23.642;2022-10-16T08:37:24;15.40;65.90
56753;DHT22;42627;42.646;23.642;2022-10-16T08:39:25;15.20;66.10
56753;DHT22;42627;42.646;23.642;2022-10-16T08:48:53;15.70;65.20
56753;DHT22;42627;42.646;23.642;2022-10-16T08:50:54;15.90;65.70
56753;DHT22;42627;42.646;23.642;2022-10-16T08:52:55;16.10;64.20
56753;DHT22;42627;42.646;23.642;2022-10-16T08:54:57;16.20;66.10
56753;DHT22;42627;42.646;23.642;2022-10-16T08:57:09;16.40;63.10
56753;DHT22;42627;42.646;23.642;2022-10-16T08:59:10;16.60;62.80
56753;DHT22;42627;42.646;23.642;2022-10-16T09:01:14;16.60;62.20
56753;DHT22;42627;42.646;23.642;2022-10-16T09:12:26;16.50;61.20
56753;DHT22;42627;42.646;23.642;2022-10-16T09:14:47;16.40;61.60
56753;DHT22;42627;42.646;23.642;2022-10-16T09:20:28;16.70;60.70
56753;DHT22;42627;42.646;23.642;2022-10-16T09:22:39;16.90;60.60
56753;DHT22;42627;42.646;23.642;2022-10-16T09:24:40;16.90;60.80
56753;DHT22;42627;42.646;23.642;2022-10-16T09:26:41;17.00;60.10
56753;DHT22;42627;42.646;23.642;2022-10-16T09:28:42;17.10;61.00
56753;DHT22;42627;42.646;23.642;2022-10-16T09:30:43;17.30;58.90
56753;DHT22;42627;42.646;23.642;2022-10-16T09:32:47;17.30;59.10
56753;DHT22;42627;42.646;23.642;2022-10-16T09:34:52;17.40;55.50
56753;DHT22;42627;42.646;23.642;2022-10-16T09:37:14;17.30;56.00
56753;DHT22;42627;42.646;23.642;2022-10-16T09:39:17;17.30;56.90
56753;DHT22;42627;42.646;23.642;2022-10-16T09:41:22;17.30;57.70
56753;DHT22;42627;42.646;23.642;2022-10-16T09:43:48;17.40;58.00
56753;DHT22;42627;42.646;23.642;2022-10-16T09:45:55;17.50;56.50
56753;DHT22;42627;42.646;23.642;2022-10-16T09:51:20;17.50;56.50
56753;DHT22;42627;42.646;23.642;2022-10-16T09:53:22;17.40;56.60
56753;DHT22;42627;42.646;23.642;2022-10-16T09:55:23;17.30;56.60
56753;DHT22;42627;42.646;23.642;2022-10-16T09:57:24;17.40;57.30
56753;DHT22;42627;42.646;23.642;2022-10-16T09:59:25;17.50;56.60
56753;DHT22;42627;42.646;23.642;2022-10-16T10:01:41;17.60;56.50
56753;DHT22;42627;42.646;23.642;2022-10-16T10:08:14;17.70;56.60
56753;DHT22;42627;42.646;23.642;2022-10-16T10:40:39;18.50;52.20
56753;DHT22;42627;42.646;23.642;2022-10-16T10:42:46;18.50;54.10
56753;DHT22;42627;42.646;23.642;2022-10-16T11:20:49;18.80;51.70
56753;DHT22;42627;42.646;23.642;2022-10-16T11:27:28;18.50;53.10
56753;DHT22;42627;42.646;23.642;2022-10-16T11:29:31;18.50;51.50
56753;DHT22;42627;42.646;23.642;2022-10-16T11:31:43;18.60;52.00
56753;DHT22;42627;42.646;23.642;2022-10-16T11:34:06;18.60;51.00
56753;DHT22;42627;42.646;23.642;2022-10-16T11:40:31;18.30;52.40
56753;DHT22;42627;42.646;23.642;2022-10-16T11:42:44;18.30;52.80
56753;DHT22;42627;42.646;23.642;2022-10-16T12:02:16;18.70;51.10
56753;DHT22;42627;42.646;23.642;2022-10-16T12:06:40;18.60;50.80
56753;DHT22;42627;42.646;23.642;2022-10-16T12:08:43;18.50;48.80
56753;DHT22;42627;42.646;23.642;2022-10-16T12:13:32;18.50;51.80
56753;DHT22;42627;42.646;23.642;2022-10-16T12:24:38;18.50;49.50
56753;DHT22;42627;42.646;23.642;2022-10-16T12:26:45;18.70;47.90
56753;DHT22;42627;42.646;23.642;2022-10-16T12:28:46;18.60;46.40
56753;DHT22;42627;42.646;23.642;2022-10-16T12:30:57;18.50;45.60
56753;DHT22;42627;42.646;23.642;2022-10-16T12:33:26;18.50;46.70
56753;DHT22;42627;42.646;23.642;2022-10-16T12:35:30;18.50;45.30
56753;DHT22;42627;42.646;23.642;2022-10-16T12:43:47;18.50;45.50
56753;DHT22;42627;42.646;23.642;2022-10-16T12:46:02;18.80;46.90
56753;DHT22;42627;42.646;23.642;2022-10-16T12:48:19;18.70;46.50
56753;DHT22;42627;42.646;23.642;2022-10-16T12:50:57;18.70;48.10
56753;DHT22;42627;42.646;23.642;2022-10-16T12:54:00;18.60;47.50
56753;DHT22;42627;42.646;23.642;2022-10-16T12:56:16;18.60;46.70
56753;DHT22;42627;42.646;23.642;2022-10-16T12:58:22;18.60;47.40
56753;DHT22;42627;42.646;23.642;2022-10-16T13:00:28;18.60;48.30
56753;DHT22;42627;42.646;23.642;2022-10-16T13:07:43;18.70;48.70
56753;DHT22;42627;42.646;23.642;2022-10-16T13:10:31;18.80;49.20
56753;DHT22;42627;42.646;23.642;2022-10-16T13:12:42;18.80;48.80
56753;DHT22;42627;42.646;23.642;2022-10-16T13:15:16;18.80;48.60
56753;DHT22;42627;42.646;23.642;2022-10-16T13:17:40;18.80;49.10
56753;DHT22;42627;42.646;23.642;2022-10-16T13:32:11;18.30;49.60
56753;DHT22;42627;42.646;23.642;2022-10-16T13:34:21;18.30;50.00
56753;DHT22;42627;42.646;23.642;2022-10-16T13:36:25;18.30;49.50
56753;DHT22;42627;42.646;23.642;2022-10-16T13:38:28;18.30;50.00
56753;DHT22;42627;42.646;23.642;2022-10-16T13:40:33;18.40;49.50
56753;DHT22;42627;42.646;23.642;2022-10-16T13:42:35;18.40;49.70
56753;DHT22;42627;42.646;23.642;2022-10-16T13:44:40;18.40;49.40
56753;DHT22;42627;42.646;23.642;2022-10-16T13:46:41;18.40;49.60
56753;DHT22;42627;42.646;23.642;2022-10-16T13:48:43;18.40;49.00
56753;DHT22;42627;42.646;23.642;2022-10-16T13:53:55;18.50;48.90
56753;DHT22;42627;42.646;23.642;2022-10-16T13:55:57;18.50;48.50
56753;DHT22;42627;42.646;23.642;2022-10-16T13:58:13;18.60;48.70
56753;DHT22;42627;42.646;23.642;2022-10-16T14:16:48;18.90;48.40
56753;DHT22;42627;42.646;23.642;2022-10-16T14:19:20;20.10;44.40
56753;DHT22;42627;42.646;23.642;2022-10-16T14:22:02;19.80;45.20
56753;DHT22;42627;42.646;23.642;2022-10-16T14:24:40;19.50;46.40
56753;DHT22;42627;42.646;23.642;2022-10-16T14:26:47;19.10;45.80
56753;DHT22;42627;42.646;23.642;2022-10-16T14:29:03;18.90;45.70
56753;DHT22;42627;42.646;23.642;2022-10-16T14:31:27;18.70;46.30
56753;DHT22;42627;42.646;23.642;2022-10-16T14:35:38;18.40;47.20
56753;DHT22;42627;42.646;23.642;2022-10-16T14:37:39;18.30;47.10
56753;DHT22;42627;42.646;23.642;2022-10-16T14:39:52;18.10;48.20
56753;DHT22;42627;42.646;23.642;2022-10-16T14:41:56;18.00;48.00
56753;DHT22;42627;42.646;23.642;2022-10-16T14:44:06;18.00;48.60
56753;DHT22;42627;42.646;23.642;2022-10-16T14:46:15;17.90;48.70
56753;DHT22;42627;42.646;23.642;2022-10-16T14:48:17;17.80;49.20
56753;DHT22;42627;42.646;23.642;2022-10-16T14:50:35;17.80;48.30
56753;DHT22;42627;42.646;23.642;2022-10-16T14:52:48;17.70;48.40
56753;DHT22;42627;42.646;23.642;2022-10-16T14:54:51;17.70;49.00
56753;DHT22;42627;42.646;23.642;2022-10-16T14:56:57;17.70;49.40
56753;DHT22;42627;42.646;23.642;2022-10-16T14:58:58;17.60;49.60
56753;DHT22;42627;42.646;23.642;2022-10-16T15:00:59;17.50;50.50
56753;DHT22;42627;42.646;23.642;2022-10-16T15:03:00;17.40;49.80
56753;DHT22;42627;42.646;23.642;2022-10-16T15:05:31;17.30;50.10
56753;DHT22;42627;42.646;23.642;2022-10-16T15:07:32;17.20;50.00
56753;DHT22;42627;42.646;23.642;2022-10-16T15:09:33;17.00;49.90
56753;DHT22;42627;42.646;23.642;2022-10-16T15:11:34;16.90;50.60
56753;DHT22;42627;42.646;23.642;2022-10-16T15:13:35;16.70;51.00
56753;DHT22;42627;42.646;23.642;2022-10-16T15:15:40;16.70;50.60
56753;DHT22;42627;42.646;23.642;2022-10-16T15:17:42;16.60;50.30
56753;DHT22;42627;42.646;23.642;2022-10-16T15:19:43;16.60;50.50
56753;DHT22;42627;42.646;23.642;2022-10-16T15:21:44;16.50;50.60
56753;DHT22;42627;42.646;23.642;2022-10-16T15:23:51;16.50;51.40
56753;DHT22;42627;42.646;23.642;2022-10-16T15:25:54;16.50;51.80
56753;DHT22;42627;42.646;23.642;2022-10-16T15:27:55;16.50;52.20
56753;DHT22;42627;42.646;23.642;2022-10-16T15:29:56;16.50;51.80
56753;DHT22;42627;42.646;23.642;2022-10-16T15:31:57;16.40;52.00
56753;DHT22;42627;42.646;23.642;2022-10-16T15:34:26;16.30;52.30
56753;DHT22;42627;42.646;23.642;2022-10-16T15:36:34;16.40;52.60
56753;DHT22;42627;42.646;23.642;2022-10-16T15:38:41;16.30;52.80
56753;DHT22;42627;42.646;23.642;2022-10-16T15:40:42;16.30;53.40
56753;DHT22;42627;42.646;23.642;2022-10-16T15:42:43;16.20;54.70
56753;DHT22;42627;42.646;23.642;2022-10-16T15:44:44;16.10;55.30
56753;DHT22;42627;42.646;23.642;2022-10-16T15:46:45;16.10;56.20
56753;DHT22;42627;42.646;23.642;2022-10-16T15:48:47;15.90;56.30
56753;DHT22;42627;42.646;23.642;2022-10-16T15:50:48;15.80;56.40
56753;DHT22;42627;42.646;23.642;2022-10-16T15:52:50;15.80;56.60
56753;DHT22;42627;42.646;23.642;2022-10-16T15:54:51;15.70;57.30
56753;DHT22;42627;42.646;23.642;2022-10-16T15:56:54;15.50;57.50
56753;DHT22;42627;42.646;23.642;2022-10-16T15:58:55;15.40;57.80
56753;DHT22;42627;42.646;23.642;2022-10-16T16:00:58;15.40;58.40
56753;DHT22;42627;42.646;23.642;2022-10-16T16:03:01;15.30;58.00
56753;DHT22;42627;42.646;23.642;2022-10-16T16:05:02;15.20;57.50
56753;DHT22;42627;42.646;23.642;2022-10-16T16:07:04;15.20;57.40
56753;DHT22;42627;42.646;23.642;2022-10-16T16:09:07;15.10;55.90
56753;DHT22;42627;42.646;23.642;2022-10-16T16:11:10;15.00;55.80
56753;DHT22;42627;42.646;23.642;2022-10-16T16:13:11;14.90;56.20
56753;DHT22;42627;42.646;23.642;2022-10-16T16:15:12;14.70;56.20
56753;DHT22;42627;42.646;23.642;2022-10-16T16:17:12;14.60;56.60
56753;DHT22;42627;42.646;23.642;2022-10-16T16:19:14;14.50;55.40
56753;DHT22;42627;42.646;23.642;2022-10-16T16:21:16;14.40;56.00
56753;DHT22;42627;42.646;23.642;2022-10-16T16:23:32;14.30;56.50
56753;DHT22;42627;42.646;23.642;2022-10-16T16:25:33;14.30;56.60
56753;DHT22;42627;42.646;23.642;2022-10-16T16:27:39;14.30;56.10
56753;DHT22;42627;42.646;23.642;2022-10-16T16:29:40;14.40;56.10
56753;DHT22;42627;42.646;23.642;2022-10-16T16:31:41;14.40;56.00
56753;DHT22;42627;42.646;23.642;2022-10-16T16:34:04;14.40;55.80
56753;DHT22;42627;42.646;23.642;2022-10-16T16:36:21;14.40;56.00
56753;DHT22;42627;42.646;23.642;2022-10-16T16:38:41;14.40;56.00
56753;DHT22;42627;42.646;23.642;2022-10-16T16:40:42;14.50;56.30
56753;DHT22;42627;42.646;23.642;2022-10-16T16:53:26;14.50;56.20
56753;DHT22;42627;42.646;23.642;2022-10-16T16:55:27;14.40;57.00
56753;DHT22;42627;42.646;23.642;2022-10-16T16:57:28;14.30;57.10
56753;DHT22;42627;42.646;23.642;2022-10-16T16:59:29;14.20;56.90
56753;DHT22;42627;42.646;23.642;2022-10-16T17:01:33;14.20;56.90
56753;DHT22;42627;42.646;23.642;2022-10-16T17:03:35;14.20;56.80
56753;DHT22;42627;42.646;23.642;2022-10-16T17:05:36;14.20;57.00
56753;DHT22;42627;42.646;23.642;2022-10-16T17:09:47;14.20;57.10
56753;DHT22;42627;42.646;23.642;2022-10-16T17:11:48;14.20;57.10
56753;DHT22;42627;42.646;23.642;2022-10-16T17:13:50;14.10;57.70
56753;DHT22;42627;42.646;23.642;2022-10-16T17:15:53;14.10;57.60
56753;DHT22;42627;42.646;23.642;2022-10-16T17:17:56;14.10;57.60
56753;DHT22;42627;42.646;23.642;2022-10-16T17:19:59;14.00;57.70
56753;DHT22;42627;42.646;23.642;2022-10-16T17:22:00;14.00;57.90
56753;DHT22;42627;42.646;23.642;2022-10-16T17:24:28;14.00;57.80
56753;DHT22;42627;42.646;23.642;2022-10-16T18:34:37;11.80;65.50
56753;DHT22;42627;42.646;23.642;2022-10-16T19:20:08;10.20;70.40